createdAt,value
2018-12-16T00:00:01.218Z,18.55
2018-12-16T00:00:13.594Z,18.55
2018-12-16T00:00:25.949Z,18.55
2018-12-16T00:00:38.296Z,18.55
2018-12-16T00:00:50.643Z,18.55
2018-12-16T00:01:03.039Z,18.55
2018-12-16T00:01:15.433Z,18.55
2018-12-16T00:01:27.782Z,18.55
2018-12-16T00:01:40.120Z,18.55
2018-12-16T00:01:52.484Z,18.55
2018-12-16T00:02:04.828Z,18.55
2018-12-16T00:02:17.170Z,18.55
2018-12-16T00:02:29.511Z,18.55
2018-12-16T00:02:41.858Z,18.55
2018-12-16T00:02:54.214Z,18.55
2018-12-16T00:03:06.566Z,18.55
2018-12-16T00:03:18.903Z,18.55
2018-12-16T00:03:31.245Z,18.55
2018-12-16T00:03:43.594Z,18.55
2018-12-16T00:03:55.964Z,18.55
2018-12-16T00:04:08.295Z,18.55
2018-12-16T00:04:20.646Z,18.55
2018-12-16T00:04:32.992Z,18.55
2018-12-16T00:04:53.341Z,18.55
2018-12-16T00:05:05.717Z,18.55
2018-12-16T00:05:18.071Z,18.55
2018-12-16T00:05:30.440Z,18.55
2018-12-16T00:05:43.003Z,18.55
2018-12-16T00:05:55.368Z,18.55
2018-12-16T00:06:07.722Z,18.55
2018-12-16T00:06:20.054Z,18.55
2018-12-16T00:06:32.390Z,18.55
2018-12-16T00:06:44.732Z,18.55
2018-12-16T00:06:57.085Z,18.55
2018-12-16T00:07:09.486Z,18.66
2018-12-16T00:07:21.829Z,18.66
2018-12-16T00:07:34.177Z,18.66
2018-12-16T00:07:46.642Z,18.66
2018-12-16T00:07:58.988Z,18.66
2018-12-16T00:08:11.327Z,18.66
2018-12-16T00:08:23.661Z,18.66
2018-12-16T00:08:35.995Z,18.66
2018-12-16T00:08:48.365Z,18.66
2018-12-16T00:09:00.707Z,18.66
2018-12-16T00:09:13.068Z,18.66
2018-12-16T00:09:25.489Z,18.66
2018-12-16T00:09:37.833Z,18.66
2018-12-16T00:09:50.170Z,18.66
2018-12-16T00:10:02.590Z,18.66
2018-12-16T00:10:14.961Z,18.66
2018-12-16T00:10:27.293Z,18.66
2018-12-16T00:10:39.626Z,18.66
2018-12-16T00:10:51.969Z,18.66
2018-12-16T00:11:04.312Z,18.66
2018-12-16T00:11:16.660Z,18.66
2018-12-16T00:11:29.006Z,18.66
2018-12-16T00:11:41.354Z,18.66
2018-12-16T00:11:53.691Z,18.66
2018-12-16T00:12:06.036Z,18.66
2018-12-16T00:12:18.371Z,18.66
2018-12-16T00:12:30.727Z,18.66
2018-12-16T00:12:43.347Z,18.66
2018-12-16T00:12:57.166Z,18.66
2018-12-16T00:13:09.576Z,18.66
2018-12-16T00:13:21.920Z,18.66
2018-12-16T00:13:34.248Z,18.66
2018-12-16T00:13:46.598Z,18.66
2018-12-16T00:13:58.948Z,18.66
2018-12-16T00:14:11.293Z,18.66
2018-12-16T00:14:23.630Z,18.66
2018-12-16T00:14:36.011Z,18.66
2018-12-16T00:14:48.370Z,18.66
2018-12-16T00:15:00.740Z,18.66
2018-12-16T00:15:13.087Z,18.66
2018-12-16T00:15:25.425Z,18.66
2018-12-16T00:15:37.779Z,18.66
2018-12-16T00:15:50.140Z,18.66
2018-12-16T00:16:02.540Z,18.66
2018-12-16T00:16:14.897Z,18.66
2018-12-16T00:16:27.254Z,18.66
2018-12-16T00:16:39.628Z,18.66
2018-12-16T00:16:51.970Z,18.66
2018-12-16T00:17:04.321Z,18.45
2018-12-16T00:17:16.724Z,18.45
2018-12-16T00:17:29.086Z,18.45
2018-12-16T00:17:41.430Z,18.45
2018-12-16T00:17:53.799Z,18.45
2018-12-16T00:18:06.157Z,18.45
2018-12-16T00:18:18.514Z,18.45
2018-12-16T00:18:30.870Z,18.45
2018-12-16T00:18:43.331Z,18.45
2018-12-16T00:18:55.671Z,18.45
2018-12-16T00:19:08.019Z,18.45
2018-12-16T00:19:20.431Z,18.45
2018-12-16T00:19:32.765Z,18.45
2018-12-16T00:19:45.255Z,18.45
2018-12-16T00:19:57.590Z,18.45
2018-12-16T00:20:09.937Z,18.45
2018-12-16T00:20:22.275Z,18.45
2018-12-16T00:20:34.629Z,18.45
2018-12-16T00:20:46.965Z,18.45
2018-12-16T00:20:59.557Z,18.45
2018-12-16T00:21:12.057Z,18.45
2018-12-16T00:21:25.279Z,18.45
2018-12-16T00:21:37.625Z,18.45
2018-12-16T00:21:49.981Z,18.45
2018-12-16T00:22:02.318Z,18.45
2018-12-16T00:22:14.656Z,18.45
2018-12-16T00:22:33.224Z,18.45
2018-12-16T00:22:45.582Z,18.45
2018-12-16T00:22:57.935Z,18.45
2018-12-16T00:23:10.277Z,18.45
2018-12-16T00:23:22.688Z,18.45
2018-12-16T00:23:35.022Z,18.45
2018-12-16T00:23:47.384Z,18.45
2018-12-16T00:23:59.745Z,18.45
2018-12-16T00:24:12.124Z,18.45
2018-12-16T00:24:24.532Z,18.45
2018-12-16T00:24:36.904Z,18.45
2018-12-16T00:24:49.259Z,18.45
2018-12-16T00:25:01.723Z,18.45
2018-12-16T00:25:14.080Z,18.45
2018-12-16T00:25:26.431Z,18.45
2018-12-16T00:25:38.779Z,18.45
2018-12-16T00:25:51.131Z,18.45
2018-12-16T00:26:03.475Z,18.45
2018-12-16T00:26:15.838Z,18.45
2018-12-16T00:26:28.377Z,18.45
2018-12-16T00:26:40.726Z,18.45
2018-12-16T00:26:53.136Z,18.45
2018-12-16T00:27:05.471Z,18.45
2018-12-16T00:27:17.826Z,17.98
2018-12-16T00:27:30.240Z,17.98
2018-12-16T00:27:42.592Z,17.98
2018-12-16T00:27:54.923Z,17.98
2018-12-16T00:28:07.253Z,17.98
2018-12-16T00:28:19.593Z,17.98
2018-12-16T00:28:31.922Z,17.98
2018-12-16T00:28:44.272Z,17.98
2018-12-16T00:28:56.609Z,17.98
2018-12-16T00:29:08.965Z,17.98
2018-12-16T00:29:21.317Z,17.98
2018-12-16T00:29:33.676Z,17.98
2018-12-16T00:29:46.018Z,17.98
2018-12-16T00:29:58.427Z,17.98
2018-12-16T00:30:10.771Z,17.98
2018-12-16T00:30:23.111Z,17.98
2018-12-16T00:30:35.471Z,17.98
2018-12-16T00:30:47.887Z,17.98
2018-12-16T00:31:00.238Z,17.98
2018-12-16T00:31:12.597Z,17.98
2018-12-16T00:31:25.007Z,17.98
2018-12-16T00:31:37.371Z,17.98
2018-12-16T00:31:49.718Z,17.98
2018-12-16T00:32:02.065Z,17.98
2018-12-16T00:32:14.597Z,17.98
2018-12-16T00:32:26.947Z,17.98
2018-12-16T00:32:39.285Z,17.98
2018-12-16T00:32:51.625Z,17.98
2018-12-16T00:33:03.961Z,17.98
2018-12-16T00:33:16.283Z,17.98
2018-12-16T00:33:28.762Z,17.98
2018-12-16T00:33:41.102Z,17.98
2018-12-16T00:33:53.455Z,17.98
2018-12-16T00:34:05.808Z,17.98
2018-12-16T00:34:18.161Z,17.98
2018-12-16T00:34:30.510Z,17.98
2018-12-16T00:34:42.849Z,17.98
2018-12-16T00:34:55.194Z,17.98
2018-12-16T00:35:07.525Z,17.98
2018-12-16T00:35:20.152Z,17.98
2018-12-16T00:35:32.487Z,17.98
2018-12-16T00:35:44.983Z,17.98
2018-12-16T00:35:57.329Z,17.98
2018-12-16T00:36:09.691Z,17.98
2018-12-16T00:36:22.078Z,17.98
2018-12-16T00:36:34.599Z,17.98
2018-12-16T00:36:46.939Z,17.98
2018-12-16T00:36:59.356Z,17.98
2018-12-16T00:37:11.684Z,19.52
2018-12-16T00:37:24.123Z,19.52
2018-12-16T00:37:36.713Z,19.52
2018-12-16T00:37:49.173Z,19.52
2018-12-16T00:38:01.516Z,19.52
2018-12-16T00:38:13.874Z,19.52
2018-12-16T00:38:26.290Z,19.52
2018-12-16T00:38:38.625Z,19.52
2018-12-16T00:38:50.964Z,19.52
2018-12-16T00:39:03.295Z,19.52
2018-12-16T00:39:15.829Z,19.52
2018-12-16T00:39:28.350Z,19.52
2018-12-16T00:39:40.705Z,19.52
2018-12-16T00:39:53.152Z,19.52
2018-12-16T00:40:05.505Z,19.52
2018-12-16T00:40:17.961Z,19.52
2018-12-16T00:40:30.312Z,19.52
2018-12-16T00:40:42.658Z,19.52
2018-12-16T00:40:55.125Z,19.52
2018-12-16T00:41:07.585Z,19.52
2018-12-16T00:41:19.951Z,19.52
2018-12-16T00:41:32.297Z,19.52
2018-12-16T00:41:44.621Z,19.52
2018-12-16T00:41:57.016Z,19.52
2018-12-16T00:42:09.352Z,19.52
2018-12-16T00:42:21.684Z,19.52
2018-12-16T00:42:34.025Z,19.52
2018-12-16T00:42:46.378Z,19.52
2018-12-16T00:42:58.712Z,19.52
2018-12-16T00:43:11.119Z,19.52
2018-12-16T00:43:23.464Z,19.52
2018-12-16T00:43:35.800Z,19.52
2018-12-16T00:43:48.142Z,19.52
2018-12-16T00:44:00.494Z,19.52
2018-12-16T00:44:13.302Z,19.52
2018-12-16T00:44:25.642Z,19.52
2018-12-16T00:44:37.985Z,19.52
2018-12-16T00:44:50.444Z,19.52
2018-12-16T00:45:02.840Z,19.52
2018-12-16T00:45:15.259Z,19.52
2018-12-16T00:45:27.603Z,19.52
2018-12-16T00:45:40.043Z,19.52
2018-12-16T00:45:52.390Z,19.52
2018-12-16T00:46:04.784Z,19.52
2018-12-16T00:46:17.110Z,19.52
2018-12-16T00:46:29.437Z,19.52
2018-12-16T00:46:41.773Z,19.52
2018-12-16T00:46:54.284Z,19.52
2018-12-16T00:47:06.643Z,19.52
2018-12-16T00:47:18.978Z,18.9
2018-12-16T00:47:31.315Z,18.9
2018-12-16T00:47:43.651Z,18.9
2018-12-16T00:47:57.863Z,18.9
2018-12-16T00:48:10.211Z,18.9
2018-12-16T00:48:22.544Z,18.9
2018-12-16T00:48:34.918Z,18.9
2018-12-16T00:48:47.253Z,18.9
2018-12-16T00:48:59.675Z,18.9
2018-12-16T00:49:12.026Z,18.9
2018-12-16T00:49:24.383Z,18.9
2018-12-16T00:49:36.742Z,18.9
2018-12-16T00:49:49.102Z,18.9
2018-12-16T00:50:01.514Z,18.9
2018-12-16T00:50:13.931Z,18.9
2018-12-16T00:50:26.271Z,18.9
2018-12-16T00:50:38.599Z,18.9
2018-12-16T00:50:51.000Z,18.9
2018-12-16T00:51:03.352Z,18.9
2018-12-16T00:51:15.753Z,18.9
2018-12-16T00:51:28.117Z,18.9
2018-12-16T00:51:40.458Z,18.9
2018-12-16T00:51:52.797Z,18.9
2018-12-16T00:52:05.139Z,18.9
2018-12-16T00:52:17.561Z,18.9
2018-12-16T00:52:36.314Z,18.9
2018-12-16T00:52:48.844Z,18.9
2018-12-16T00:53:01.194Z,18.9
2018-12-16T00:53:13.609Z,18.9
2018-12-16T00:53:25.960Z,18.9
2018-12-16T00:53:38.310Z,18.9
2018-12-16T00:53:50.644Z,18.9
2018-12-16T00:54:02.986Z,18.9
2018-12-16T00:54:15.320Z,18.9
2018-12-16T00:54:27.666Z,18.9
2018-12-16T00:54:40.007Z,18.9
2018-12-16T00:54:52.393Z,18.9
2018-12-16T00:55:04.907Z,18.9
2018-12-16T00:55:17.331Z,18.9
2018-12-16T00:55:29.694Z,18.9
2018-12-16T00:55:42.037Z,18.9
2018-12-16T00:55:54.373Z,18.9
2018-12-16T00:56:06.734Z,18.9
2018-12-16T00:56:19.077Z,18.9
2018-12-16T00:56:31.433Z,18.9
2018-12-16T00:56:43.925Z,18.9
2018-12-16T00:56:56.267Z,18.9
2018-12-16T00:57:08.884Z,18.9
2018-12-16T00:57:21.221Z,18.18
2018-12-16T00:57:33.568Z,18.18
2018-12-16T00:57:45.915Z,18.18
2018-12-16T00:57:58.254Z,18.18
2018-12-16T00:58:10.597Z,18.18
2018-12-16T00:58:22.931Z,18.18
2018-12-16T00:58:35.261Z,18.18
2018-12-16T00:58:47.614Z,18.18
2018-12-16T00:59:00.069Z,18.18
2018-12-16T00:59:12.414Z,18.18
2018-12-16T00:59:24.760Z,18.18
2018-12-16T00:59:37.109Z,18.18
2018-12-16T00:59:49.452Z,18.18
2018-12-16T01:00:01.801Z,18.18
2018-12-16T01:00:14.177Z,18.18
2018-12-16T01:00:26.539Z,18.18
2018-12-16T01:00:38.959Z,18.18
2018-12-16T01:00:51.320Z,18.18
2018-12-16T01:01:03.668Z,18.18
2018-12-16T01:01:16.027Z,18.18
2018-12-16T01:01:28.367Z,18.18
2018-12-16T01:01:40.718Z,18.18
2018-12-16T01:01:53.081Z,18.18
2018-12-16T01:02:05.436Z,18.18
2018-12-16T01:02:17.850Z,18.18
2018-12-16T01:02:30.193Z,18.18
2018-12-16T01:02:42.534Z,18.18
2018-12-16T01:02:54.878Z,18.18
2018-12-16T01:03:07.210Z,18.18
2018-12-16T01:03:19.537Z,18.18
2018-12-16T01:03:31.899Z,18.18
2018-12-16T01:03:44.886Z,18.18
2018-12-16T01:03:57.226Z,18.18
2018-12-16T01:04:09.573Z,18.18
2018-12-16T01:04:21.911Z,18.18
2018-12-16T01:04:34.263Z,18.18
2018-12-16T01:04:46.601Z,18.18
2018-12-16T01:04:58.938Z,18.18
2018-12-16T01:05:11.289Z,18.18
2018-12-16T01:05:23.632Z,18.18
2018-12-16T01:05:35.964Z,18.18
2018-12-16T01:05:48.402Z,18.18
2018-12-16T01:06:00.822Z,18.18
2018-12-16T01:06:13.188Z,18.18
2018-12-16T01:06:25.521Z,18.18
2018-12-16T01:06:37.862Z,18.18
2018-12-16T01:06:50.213Z,18.18
2018-12-16T01:07:02.587Z,18.18
2018-12-16T01:07:15.017Z,17.38
2018-12-16T01:07:27.354Z,17.38
2018-12-16T01:07:39.701Z,17.38
2018-12-16T01:07:52.218Z,17.38
2018-12-16T01:08:04.646Z,17.38
2018-12-16T01:08:16.982Z,17.38
2018-12-16T01:08:29.315Z,17.38
2018-12-16T01:08:41.654Z,17.38
2018-12-16T01:08:54.043Z,17.38
2018-12-16T01:09:06.380Z,17.38
2018-12-16T01:09:18.728Z,17.38
2018-12-16T01:09:31.097Z,17.38
2018-12-16T01:09:43.441Z,17.38
2018-12-16T01:09:55.775Z,17.38
2018-12-16T01:10:08.111Z,17.38
2018-12-16T01:10:20.455Z,17.38
2018-12-16T01:10:32.799Z,17.38
2018-12-16T01:10:45.156Z,17.38
2018-12-16T01:10:57.482Z,17.38
2018-12-16T01:11:09.816Z,17.38
2018-12-16T01:11:22.179Z,17.38
2018-12-16T01:11:34.533Z,17.38
2018-12-16T01:11:46.884Z,17.38
2018-12-16T01:11:59.298Z,17.38
2018-12-16T01:12:11.635Z,17.38
2018-12-16T01:12:24.008Z,17.38
2018-12-16T01:12:36.362Z,17.38
2018-12-16T01:12:48.891Z,17.38
2018-12-16T01:13:01.236Z,17.38
2018-12-16T01:13:13.579Z,17.38
2018-12-16T01:13:25.929Z,17.38
2018-12-16T01:13:38.268Z,17.38
2018-12-16T01:13:50.608Z,17.38
2018-12-16T01:14:02.971Z,17.38
2018-12-16T01:14:15.303Z,17.38
2018-12-16T01:14:27.645Z,17.38
2018-12-16T01:14:40.037Z,17.38
2018-12-16T01:14:52.630Z,17.38
2018-12-16T01:15:04.986Z,17.38
2018-12-16T01:15:17.314Z,17.38
2018-12-16T01:15:29.644Z,17.38
2018-12-16T01:15:42.060Z,17.38
2018-12-16T01:15:54.428Z,17.38
2018-12-16T01:16:06.774Z,17.38
2018-12-16T01:16:19.160Z,17.38
2018-12-16T01:16:31.494Z,17.38
2018-12-16T01:16:43.841Z,17.38
2018-12-16T01:16:56.190Z,17.38
2018-12-16T01:17:08.586Z,17.38
2018-12-16T01:17:20.919Z,16.89
2018-12-16T01:17:33.253Z,16.89
2018-12-16T01:17:45.589Z,16.89
2018-12-16T01:17:57.920Z,16.89
2018-12-16T01:18:10.269Z,16.89
2018-12-16T01:18:22.619Z,16.89
2018-12-16T01:18:34.999Z,16.89
2018-12-16T01:18:47.379Z,16.89
2018-12-16T01:18:59.720Z,16.89
2018-12-16T01:19:12.130Z,16.89
2018-12-16T01:19:24.462Z,16.89
2018-12-16T01:19:36.922Z,16.89
2018-12-16T01:19:49.250Z,16.89
2018-12-16T01:20:01.600Z,16.89
2018-12-16T01:20:14.037Z,16.89
2018-12-16T01:20:26.370Z,16.89
2018-12-16T01:20:38.707Z,16.89
2018-12-16T01:20:51.080Z,16.89
2018-12-16T01:21:03.436Z,16.89
2018-12-16T01:21:15.760Z,16.89
2018-12-16T01:21:28.268Z,16.89
2018-12-16T01:21:40.622Z,16.89
2018-12-16T01:21:52.954Z,16.89
2018-12-16T01:22:05.369Z,16.89
2018-12-16T01:22:17.722Z,16.89
2018-12-16T01:22:30.069Z,16.89
2018-12-16T01:22:48.952Z,16.89
2018-12-16T01:23:01.309Z,16.89
2018-12-16T01:23:13.640Z,16.89
2018-12-16T01:23:25.980Z,16.89
2018-12-16T01:23:38.319Z,16.89
2018-12-16T01:23:50.700Z,16.89
2018-12-16T01:24:03.041Z,16.89
2018-12-16T01:24:15.369Z,16.89
2018-12-16T01:24:28.595Z,16.89
2018-12-16T01:24:40.946Z,16.89
2018-12-16T01:24:53.296Z,16.89
2018-12-16T01:25:05.846Z,16.89
2018-12-16T01:25:18.215Z,16.89
2018-12-16T01:25:30.635Z,16.89
2018-12-16T01:25:42.980Z,16.89
2018-12-16T01:25:55.331Z,16.89
2018-12-16T01:26:07.749Z,16.89
2018-12-16T01:26:20.081Z,16.89
2018-12-16T01:26:32.577Z,16.89
2018-12-16T01:26:44.926Z,16.89
2018-12-16T01:26:57.289Z,16.89
2018-12-16T01:27:09.619Z,16.89
2018-12-16T01:27:21.967Z,15.4
2018-12-16T01:27:34.337Z,15.4
2018-12-16T01:27:46.753Z,15.4
2018-12-16T01:27:59.119Z,15.4
2018-12-16T01:28:11.464Z,15.4
2018-12-16T01:28:23.823Z,15.4
2018-12-16T01:28:36.174Z,15.4
2018-12-16T01:28:48.522Z,15.4
2018-12-16T01:29:00.868Z,15.4
2018-12-16T01:29:13.251Z,15.4
2018-12-16T01:29:25.597Z,15.4
2018-12-16T01:29:37.945Z,15.4
2018-12-16T01:29:50.303Z,15.4
2018-12-16T01:30:02.642Z,15.4
2018-12-16T01:30:14.997Z,15.4
2018-12-16T01:30:27.328Z,15.4
2018-12-16T01:30:39.743Z,15.4
2018-12-16T01:30:52.124Z,15.4
2018-12-16T01:31:04.522Z,15.4
2018-12-16T01:31:16.879Z,15.4
2018-12-16T01:31:29.218Z,15.4
2018-12-16T01:31:41.546Z,15.4
2018-12-16T01:31:53.881Z,15.4
2018-12-16T01:32:06.211Z,15.4
2018-12-16T01:32:18.854Z,15.4
2018-12-16T01:32:31.266Z,15.4
2018-12-16T01:32:43.668Z,15.4
2018-12-16T01:32:56.000Z,15.4
2018-12-16T01:33:08.359Z,15.4
2018-12-16T01:33:20.706Z,15.4
2018-12-16T01:33:33.102Z,15.4
2018-12-16T01:33:45.436Z,15.4
2018-12-16T01:33:57.762Z,15.4
2018-12-16T01:34:10.105Z,15.4
2018-12-16T01:34:22.444Z,15.4
2018-12-16T01:34:34.799Z,15.4
2018-12-16T01:34:49.000Z,15.4
2018-12-16T01:35:01.357Z,15.4
2018-12-16T01:35:13.837Z,15.4
2018-12-16T01:35:26.316Z,15.4
2018-12-16T01:35:38.664Z,15.4
2018-12-16T01:35:51.078Z,15.4
2018-12-16T01:36:03.472Z,15.4
2018-12-16T01:36:15.825Z,15.4
2018-12-16T01:36:28.162Z,15.4
2018-12-16T01:36:40.668Z,15.4
2018-12-16T01:36:53.010Z,15.4
2018-12-16T01:37:05.353Z,15.4
2018-12-16T01:37:17.721Z,15.65
2018-12-16T01:37:30.322Z,15.65
2018-12-16T01:37:42.784Z,15.65
2018-12-16T01:37:55.135Z,15.65
2018-12-16T01:38:07.539Z,15.65
2018-12-16T01:38:19.950Z,15.65
2018-12-16T01:38:32.295Z,15.65
2018-12-16T01:38:44.646Z,15.65
2018-12-16T01:38:57.115Z,15.65
2018-12-16T01:39:09.464Z,15.65
2018-12-16T01:39:21.962Z,15.65
2018-12-16T01:39:34.293Z,15.65
2018-12-16T01:39:46.630Z,15.65
2018-12-16T01:39:59.104Z,15.65
2018-12-16T01:40:11.448Z,15.65
2018-12-16T01:40:23.770Z,15.65
2018-12-16T01:40:36.255Z,15.65
2018-12-16T01:40:48.616Z,15.65
2018-12-16T01:41:01.003Z,15.65
2018-12-16T01:41:13.457Z,15.65
2018-12-16T01:41:25.795Z,15.65
2018-12-16T01:41:38.118Z,15.65
2018-12-16T01:41:50.480Z,15.65
2018-12-16T01:42:02.829Z,15.65
2018-12-16T01:42:15.175Z,15.65
2018-12-16T01:42:27.581Z,15.65
2018-12-16T01:42:39.928Z,15.65
2018-12-16T01:42:52.343Z,15.65
2018-12-16T01:43:04.757Z,15.65
2018-12-16T01:43:17.114Z,15.65
2018-12-16T01:43:29.445Z,15.65
2018-12-16T01:43:41.785Z,15.65
2018-12-16T01:43:54.108Z,15.65
2018-12-16T01:44:06.456Z,15.65
2018-12-16T01:44:18.791Z,15.65
2018-12-16T01:44:31.129Z,15.65
2018-12-16T01:44:43.488Z,15.65
2018-12-16T01:44:55.990Z,15.65
2018-12-16T01:45:08.472Z,15.65
2018-12-16T01:45:20.824Z,15.65
2018-12-16T01:45:33.370Z,15.65
2018-12-16T01:45:45.743Z,15.65
2018-12-16T01:45:58.086Z,15.65
2018-12-16T01:46:10.471Z,15.65
2018-12-16T01:46:22.815Z,15.65
2018-12-16T01:46:35.161Z,15.65
2018-12-16T01:46:47.742Z,15.65
2018-12-16T01:47:00.088Z,15.65
2018-12-16T01:47:12.441Z,15.65
2018-12-16T01:47:24.776Z,14.53
2018-12-16T01:47:37.169Z,14.53
2018-12-16T01:47:49.490Z,14.53
2018-12-16T01:48:01.979Z,14.53
2018-12-16T01:48:14.317Z,14.53
2018-12-16T01:48:26.795Z,14.53
2018-12-16T01:48:39.196Z,14.53
2018-12-16T01:48:51.547Z,14.53
2018-12-16T01:49:03.879Z,14.53
2018-12-16T01:49:16.247Z,14.53
2018-12-16T01:49:28.578Z,14.53
2018-12-16T01:49:41.022Z,14.53
2018-12-16T01:49:53.379Z,14.53
2018-12-16T01:50:05.874Z,14.53
2018-12-16T01:50:18.217Z,14.53
2018-12-16T01:50:30.542Z,14.53
2018-12-16T01:50:42.904Z,14.53
2018-12-16T01:50:55.237Z,14.53
2018-12-16T01:51:07.790Z,14.53
2018-12-16T01:51:20.289Z,14.53
2018-12-16T01:51:32.616Z,14.53
2018-12-16T01:51:45.033Z,14.53
2018-12-16T01:51:57.384Z,14.53
2018-12-16T01:52:09.890Z,14.53
2018-12-16T01:52:22.222Z,14.53
2018-12-16T01:52:34.698Z,14.53
2018-12-16T01:52:53.440Z,14.53
2018-12-16T01:53:05.777Z,14.53
2018-12-16T01:53:18.106Z,14.53
2018-12-16T01:53:30.440Z,14.53
2018-12-16T01:53:42.822Z,14.53
2018-12-16T01:53:55.193Z,14.53
2018-12-16T01:54:07.529Z,14.53
2018-12-16T01:54:19.883Z,14.53
2018-12-16T01:54:32.235Z,14.53
2018-12-16T01:54:44.589Z,14.53
2018-12-16T01:54:57.068Z,14.53
2018-12-16T01:55:09.417Z,14.53
2018-12-16T01:55:21.752Z,14.53
2018-12-16T01:55:34.078Z,14.53
2018-12-16T01:55:46.490Z,14.53
2018-12-16T01:55:58.826Z,14.53
2018-12-16T01:56:11.160Z,14.53
2018-12-16T01:56:23.502Z,14.53
2018-12-16T01:56:35.839Z,14.53
2018-12-16T01:56:48.385Z,14.53
2018-12-16T01:57:00.716Z,14.53
2018-12-16T01:57:13.083Z,14.53
2018-12-16T01:57:25.405Z,13.02
2018-12-16T01:57:37.747Z,13.02
2018-12-16T01:57:50.127Z,13.02
2018-12-16T01:58:02.470Z,13.02
2018-12-16T01:58:14.809Z,13.02
2018-12-16T01:58:27.151Z,13.02
2018-12-16T01:58:39.540Z,13.02
2018-12-16T01:58:51.939Z,13.02
2018-12-16T01:59:04.581Z,13.02
2018-12-16T01:59:16.935Z,13.02
2018-12-16T01:59:29.283Z,13.02
2018-12-16T01:59:41.699Z,13.02
2018-12-16T01:59:54.049Z,13.02
2018-12-16T02:00:06.428Z,13.02
2018-12-16T02:00:18.939Z,13.02
2018-12-16T02:00:31.303Z,13.02
2018-12-16T02:00:43.656Z,13.02
2018-12-16T02:00:56.097Z,13.02
2018-12-16T02:01:08.446Z,13.02
2018-12-16T02:01:20.878Z,13.02
2018-12-16T02:01:33.232Z,13.02
2018-12-16T02:01:45.578Z,13.02
2018-12-16T02:01:57.937Z,13.02
2018-12-16T02:02:10.382Z,13.02
2018-12-16T02:02:22.731Z,13.02
2018-12-16T02:02:35.096Z,13.02
2018-12-16T02:02:47.442Z,13.02
2018-12-16T02:02:59.806Z,13.02
2018-12-16T02:03:12.232Z,13.02
2018-12-16T02:03:24.576Z,13.02
2018-12-16T02:03:36.910Z,13.02
2018-12-16T02:03:49.253Z,13.02
2018-12-16T02:04:01.595Z,13.02
2018-12-16T02:04:13.928Z,13.02
2018-12-16T02:04:26.274Z,13.02
2018-12-16T02:04:38.713Z,13.02
2018-12-16T02:04:51.072Z,13.02
2018-12-16T02:05:03.585Z,13.02
2018-12-16T02:05:15.942Z,13.02
2018-12-16T02:05:28.273Z,13.02
2018-12-16T02:05:40.598Z,13.02
2018-12-16T02:05:52.946Z,13.02
2018-12-16T02:06:05.284Z,13.02
2018-12-16T02:06:17.772Z,13.02
2018-12-16T02:06:30.112Z,13.02
2018-12-16T02:06:42.474Z,13.02
2018-12-16T02:06:54.825Z,13.02
2018-12-16T02:07:07.251Z,13.02
2018-12-16T02:07:19.678Z,13.16
2018-12-16T02:07:32.036Z,13.16
2018-12-16T02:07:44.548Z,13.16
2018-12-16T02:07:56.912Z,13.16
2018-12-16T02:08:09.247Z,13.16
2018-12-16T02:08:21.609Z,13.16
2018-12-16T02:08:35.255Z,13.16
2018-12-16T02:08:47.592Z,13.16
2018-12-16T02:08:59.932Z,13.16
2018-12-16T02:09:12.279Z,13.16
2018-12-16T02:09:24.632Z,13.16
2018-12-16T02:09:36.976Z,13.16
2018-12-16T02:09:49.330Z,13.16
2018-12-16T02:10:01.670Z,13.16
2018-12-16T02:10:14.019Z,13.16
2018-12-16T02:10:26.371Z,13.16
2018-12-16T02:10:38.842Z,13.16
2018-12-16T02:10:51.184Z,13.16
2018-12-16T02:11:03.527Z,13.16
2018-12-16T02:11:15.863Z,13.16
2018-12-16T02:11:28.193Z,13.16
2018-12-16T02:11:40.542Z,13.16
2018-12-16T02:11:52.890Z,13.16
2018-12-16T02:12:05.317Z,13.16
2018-12-16T02:12:17.647Z,13.16
2018-12-16T02:12:29.985Z,13.16
2018-12-16T02:12:42.346Z,13.16
2018-12-16T02:12:54.888Z,13.16
2018-12-16T02:13:07.256Z,13.16
2018-12-16T02:13:19.596Z,13.16
2018-12-16T02:13:31.948Z,13.16
2018-12-16T02:13:44.283Z,13.16
2018-12-16T02:13:56.612Z,13.16
2018-12-16T02:14:08.960Z,13.16
2018-12-16T02:14:21.328Z,13.16
2018-12-16T02:14:33.666Z,13.16
2018-12-16T02:14:46.022Z,13.16
2018-12-16T02:14:58.530Z,13.16
2018-12-16T02:15:10.868Z,13.16
2018-12-16T02:15:23.216Z,13.16
2018-12-16T02:15:35.569Z,13.16
2018-12-16T02:15:47.910Z,13.16
2018-12-16T02:16:00.348Z,13.16
2018-12-16T02:16:12.691Z,13.16
2018-12-16T02:16:25.024Z,13.16
2018-12-16T02:16:37.363Z,13.16
2018-12-16T02:16:49.695Z,13.16
2018-12-16T02:17:02.058Z,13.16
2018-12-16T02:17:14.476Z,13.16
2018-12-16T02:17:26.924Z,11.43
2018-12-16T02:17:39.293Z,11.43
2018-12-16T02:17:51.693Z,11.43
2018-12-16T02:18:04.076Z,11.43
2018-12-16T02:18:16.468Z,11.43
2018-12-16T02:18:28.822Z,11.43
2018-12-16T02:18:41.160Z,11.43
2018-12-16T02:18:53.534Z,11.43
2018-12-16T02:19:05.907Z,11.43
2018-12-16T02:19:18.315Z,11.43
2018-12-16T02:19:30.675Z,11.43
2018-12-16T02:19:43.151Z,11.43
2018-12-16T02:19:55.496Z,11.43
2018-12-16T02:20:07.841Z,11.43
2018-12-16T02:20:20.181Z,11.43
2018-12-16T02:20:32.518Z,11.43
2018-12-16T02:20:44.846Z,11.43
2018-12-16T02:20:57.179Z,11.43
2018-12-16T02:21:09.498Z,11.43
2018-12-16T02:21:21.888Z,11.43
2018-12-16T02:21:34.313Z,11.43
2018-12-16T02:21:46.645Z,11.43
2018-12-16T02:21:58.995Z,11.43
2018-12-16T02:22:11.341Z,11.43
2018-12-16T02:22:23.700Z,11.43
2018-12-16T02:22:36.057Z,11.43
2018-12-16T02:22:48.450Z,11.43
2018-12-16T02:23:07.130Z,11.43
2018-12-16T02:23:19.536Z,11.43
2018-12-16T02:23:31.900Z,11.43
2018-12-16T02:23:44.254Z,11.43
2018-12-16T02:23:56.624Z,11.43
2018-12-16T02:24:08.950Z,11.43
2018-12-16T02:24:21.324Z,11.43
2018-12-16T02:24:33.714Z,11.43
2018-12-16T02:24:46.144Z,11.43
2018-12-16T02:24:58.635Z,11.43
2018-12-16T02:25:10.991Z,11.43
2018-12-16T02:25:23.342Z,11.43
2018-12-16T02:25:35.683Z,11.43
2018-12-16T02:25:48.030Z,11.43
2018-12-16T02:26:00.373Z,11.43
2018-12-16T02:26:12.708Z,11.43
2018-12-16T02:26:25.035Z,11.43
2018-12-16T02:26:37.622Z,11.43
2018-12-16T02:26:49.960Z,11.43
2018-12-16T02:27:02.315Z,11.43
2018-12-16T02:27:14.717Z,11.43
2018-12-16T02:27:27.064Z,11.85
2018-12-16T02:27:39.566Z,11.85
2018-12-16T02:27:52.052Z,11.85
2018-12-16T02:28:04.451Z,11.85
2018-12-16T02:28:16.779Z,11.85
2018-12-16T02:28:29.116Z,11.85
2018-12-16T02:28:41.459Z,11.85
2018-12-16T02:28:53.838Z,11.85
2018-12-16T02:29:06.177Z,11.85
2018-12-16T02:29:18.531Z,11.85
2018-12-16T02:29:30.899Z,11.85
2018-12-16T02:29:43.244Z,11.85
2018-12-16T02:29:55.626Z,11.85
2018-12-16T02:30:07.979Z,11.85
2018-12-16T02:30:20.328Z,11.85
2018-12-16T02:30:32.728Z,11.85
2018-12-16T02:30:45.095Z,11.85
2018-12-16T02:30:57.448Z,11.85
2018-12-16T02:31:09.842Z,11.85
2018-12-16T02:31:22.237Z,11.85
2018-12-16T02:31:34.595Z,11.85
2018-12-16T02:31:46.934Z,11.85
2018-12-16T02:31:59.391Z,11.85
2018-12-16T02:32:11.754Z,11.85
2018-12-16T02:32:24.344Z,11.85
2018-12-16T02:32:36.681Z,11.85
2018-12-16T02:32:49.054Z,11.85
2018-12-16T02:33:01.451Z,11.85
2018-12-16T02:33:13.809Z,11.85
2018-12-16T02:33:26.251Z,11.85
2018-12-16T02:33:38.608Z,11.85
2018-12-16T02:33:50.977Z,11.85
2018-12-16T02:34:03.355Z,11.85
2018-12-16T02:34:15.718Z,11.85
2018-12-16T02:34:28.067Z,11.85
2018-12-16T02:34:40.439Z,11.85
2018-12-16T02:34:52.816Z,11.85
2018-12-16T02:35:05.185Z,11.85
2018-12-16T02:35:18.664Z,11.85
2018-12-16T02:35:31.035Z,11.85
2018-12-16T02:35:43.467Z,11.85
2018-12-16T02:35:55.801Z,11.85
2018-12-16T02:36:08.155Z,11.85
2018-12-16T02:36:20.509Z,11.85
2018-12-16T02:36:33.005Z,11.85
2018-12-16T02:36:45.455Z,11.85
2018-12-16T02:36:57.849Z,11.85
2018-12-16T02:37:10.260Z,11.85
2018-12-16T02:37:22.787Z,11.78
2018-12-16T02:37:35.297Z,11.78
2018-12-16T02:37:47.778Z,11.78
2018-12-16T02:38:00.172Z,11.78
2018-12-16T02:38:12.552Z,11.78
2018-12-16T02:38:24.973Z,11.78
2018-12-16T02:38:37.356Z,11.78
2018-12-16T02:38:49.708Z,11.78
2018-12-16T02:39:02.089Z,11.78
2018-12-16T02:39:14.508Z,11.78
2018-12-16T02:39:27.018Z,11.78
2018-12-16T02:39:39.446Z,11.78
2018-12-16T02:39:52.013Z,11.78
2018-12-16T02:40:04.502Z,11.78
2018-12-16T02:40:16.888Z,11.78
2018-12-16T02:40:29.353Z,11.78
2018-12-16T02:40:41.703Z,11.78